Time;durP1;ratioP1;P1;durP2;ratioP2;P2;SDS_P1;SDS_P2;PMS_P1;PMS_P2;Temp;Humidity;BMP_temperature;BMP_pressure;BME280_temperature;BME280_humidity;BME280_pressure;Samples;Min_cycle;Max_cycle;Signal;HPM_P1;HPM_P2
2023/08/26 00:01:53;;;;;;;16.67;14.05;;;;;;;18.73;100.00;100872.75;5275036;28;20505;-71
2023/08/26 00:04:25;;;;;;;14.90;13.15;;;;;;;18.65;100.00;100877.09;5282010;28;20509;-71
2023/08/26 00:06:56;;;;;;;13.70;11.30;;;;;;;18.56;100.00;100885.31;5278642;28;20062;-71
2023/08/26 00:09:27;;;;;;;11.18;10.00;;;;;;;18.52;100.00;100882.19;5280680;28;20032;-71
2023/08/26 00:11:58;;;;;;;13.25;8.75;;;;;;;18.48;100.00;100878.25;5275212;28;20541;-71
2023/08/26 00:14:30;;;;;;;10.53;8.17;;;;;;;18.40;100.00;100878.34;5279464;28;20153;-71
2023/08/26 00:17:01;;;;;;;9.88;7.65;;;;;;;18.28;100.00;100880.59;5272148;28;20047;-71
2023/08/26 00:19:32;;;;;;;10.30;7.30;;;;;;;18.19;100.00;100871.09;5273473;28;20059;-71
2023/08/26 00:22:05;;;;;;;9.35;7.38;;;;;;;18.14;100.00;100876.06;5269826;28;20438;-71
2023/08/26 00:24:36;;;;;;;10.02;7.97;;;;;;;18.10;100.00;100878.25;5275071;28;20031;-71
2023/08/26 00:27:07;;;;;;;10.43;6.97;;;;;;;17.97;100.00;100865.63;5278177;28;20024;-71
2023/08/26 00:29:40;;;;;;;11.55;7.82;;;;;;;18.02;100.00;100872.22;5282953;28;20036;-71
2023/08/26 00:32:11;;;;;;;10.80;7.25;;;;;;;17.97;100.00;100881.53;5269924;28;20085;-71
2023/08/26 00:34:43;;;;;;;11.00;7.03;;;;;;;17.96;100.00;100877.22;5280440;28;20159;-71
2023/08/26 00:37:14;;;;;;;11.70;6.53;;;;;;;17.91;100.00;100876.91;5275263;28;20489;-71
2023/08/26 00:39:46;;;;;;;10.98;6.10;;;;;;;17.90;100.00;100875.28;5280897;28;20031;-71
2023/08/26 00:42:17;;;;;;;10.07;5.93;;;;;;;17.86;100.00;100875.81;5277556;28;20044;-71
2023/08/26 00:44:48;;;;;;;9.35;6.07;;;;;;;17.79;100.00;100872.22;5279751;28;20028;-71
2023/08/26 00:47:20;;;;;;;9.10;6.03;;;;;;;17.69;100.00;100857.34;5272440;28;20027;-71
2023/08/26 00:49:51;;;;;;;7.00;5.88;;;;;;;17.71;100.00;100881.84;5273449;28;20044;-71
2023/08/26 00:52:22;;;;;;;8.13;5.60;;;;;;;17.64;100.00;100878.25;5272578;28;20382;-71
2023/08/26 00:54:54;;;;;;;9.65;5.30;;;;;;;17.53;100.00;100873.34;5279248;28;20385;-71
2023/08/26 00:57:25;;;;;;;7.35;4.50;;;;;;;17.40;100.00;100878.41;5270406;28;20028;-71
2023/08/26 00:59:57;;;;;;;6.03;4.32;;;;;;;17.41;100.00;100880.84;5275914;28;20033;-71
2023/08/26 01:02:28;;;;;;;6.50;3.90;;;;;;;17.23;100.00;100880.28;5277322;28;20074;-71
2023/08/26 01:05:00;;;;;;;6.15;4.30;;;;;;;17.19;100.00;100879.81;5274246;28;20088;-71
2023/08/26 01:07:31;;;;;;;7.05;4.00;;;;;;;17.15;100.00;100878.50;5277752;28;20743;-71
2023/08/26 01:10:03;;;;;;;6.70;3.67;;;;;;;17.09;100.00;100876.56;5280381;28;20115;-71
2023/08/26 01:12:55;;;;;;;7.43;3.63;;;;;;;17.21;100.00;100883.13;5276270;28;20056;-71
2023/08/26 01:15:29;;;;;;;6.60;3.30;;;;;;;16.99;100.00;100876.75;5287591;28;20051;-71
2023/08/26 01:18:05;;;;;;;6.38;3.78;;;;;;;16.92;100.00;100888.19;5279431;28;20035;-71
2023/08/26 01:20:36;;;;;;;8.70;3.25;;;;;;;16.93;100.00;100885.38;5275606;28;20024;-71
2023/08/26 01:23:13;;;;;;;6.25;3.40;;;;;;;16.94;100.00;100880.91;5279546;28;20485;-71
2023/08/26 01:25:45;;;;;;;5.35;3.60;;;;;;;16.74;100.00;100885.75;5275248;28;20258;-71
2023/08/26 01:28:16;;;;;;;5.80;3.35;;;;;;;16.72;100.00;100893.84;5275269;28;20048;-71
2023/08/26 01:30:48;;;;;;;9.25;3.00;;;;;;;16.74;100.00;100891.03;5274067;28;20109;-71
2023/08/26 01:33:24;;;;;;;7.40;2.93;;;;;;;16.71;100.00;100888.72;5275829;28;20097;-71
2023/08/26 01:35:59;;;;;;;7.15;3.35;;;;;;;16.65;100.00;100887.56;5279350;28;20439;-71
2023/08/26 01:38:31;;;;;;;7.20;3.28;;;;;;;16.47;100.00;100887.75;5272225;28;20295;-70
2023/08/26 01:41:03;;;;;;;4.90;2.65;;;;;;;16.45;100.00;100886.28;5274966;28;20448;-71
2023/08/26 01:43:36;;;;;;;7.95;3.47;;;;;;;16.47;100.00;100882.47;5275245;28;20400;-71
2023/08/26 01:46:07;;;;;;;6.13;3.13;;;;;;;16.45;100.00;100891.56;5277834;28;20473;-70
2023/08/26 01:48:38;;;;;;;7.65;3.58;;;;;;;16.37;100.00;100897.69;5271375;28;20899;-71
2023/08/26 01:51:12;;;;;;;5.25;2.85;;;;;;;16.32;100.00;100888.59;5274344;28;20052;-71
2023/08/26 01:53:43;;;;;;;6.45;2.65;;;;;;;16.25;100.00;100891.06;5272338;28;20033;-71
2023/08/26 01:56:14;;;;;;;7.70;2.78;;;;;;;16.23;100.00;100893.91;5278348;28;20335;-71
2023/08/26 01:58:45;;;;;;;7.50;3.10;;;;;;;16.24;100.00;100892.91;5272418;28;20431;-71
2023/08/26 02:01:17;;;;;;;6.18;3.00;;;;;;;16.19;100.00;100899.69;5280481;28;20481;-71
2023/08/26 02:03:48;;;;;;;5.75;2.85;;;;;;;16.14;100.00;100881.69;5277708;28;20485;-70
2023/08/26 02:06:19;;;;;;;5.07;3.15;;;;;;;16.15;100.00;100890.44;5277421;28;20393;-70
2023/08/26 02:08:53;;;;;;;5.57;2.63;;;;;;;16.11;100.00;100891.75;5272701;28;20039;-71
2023/08/26 02:11:24;;;;;;;6.75;2.67;;;;;;;16.08;100.00;100892.91;5268734;28;20039;-71
2023/08/26 02:13:55;;;;;;;4.75;2.40;;;;;;;16.03;100.00;100882.00;5276367;28;20513;-71
2023/08/26 02:16:26;;;;;;;5.72;2.40;;;;;;;15.96;100.00;100884.47;5253453;28;20458;-70
2023/08/26 02:18:58;;;;;;;5.18;2.42;;;;;;;15.96;100.00;100887.13;5270626;28;20130;-70
2023/08/26 02:21:29;;;;;;;7.65;2.63;;;;;;;15.93;100.00;100890.09;5276211;28;20066;-70
2023/08/26 02:24:00;;;;;;;7.25;2.38;;;;;;;15.93;100.00;100890.09;5264233;28;20238;-71
2023/08/26 02:26:32;;;;;;;7.18;2.47;;;;;;;15.90;100.00;100890.41;5275724;28;20467;-70
2023/08/26 02:29:04;;;;;;;5.35;2.58;;;;;;;15.89;100.00;100882.66;5269789;28;20024;-71
2023/08/26 02:31:35;;;;;;;5.50;2.22;;;;;;;15.85;100.00;100887.44;5272910;28;20047;-71
2023/08/26 02:34:07;;;;;;;3.50;2.15;;;;;;;15.75;100.00;100884.94;5273610;28;20493;-71
2023/08/26 02:36:38;;;;;;;5.05;2.20;;;;;;;15.72;100.00;100882.66;5272836;28;20034;-70
2023/08/26 02:39:09;;;;;;;5.70;2.08;;;;;;;15.72;100.00;100887.06;5268363;28;20031;-70
2023/08/26 02:41:40;;;;;;;4.53;1.92;;;;;;;15.69;100.00;100887.44;5276122;28;20020;-70
2023/08/26 02:44:12;;;;;;;6.03;1.92;;;;;;;15.65;100.00;100881.63;5274398;28;20036;-70
2023/08/26 02:46:43;;;;;;;6.97;2.33;;;;;;;15.61;100.00;100879.44;5273783;28;20063;-70
2023/08/26 02:49:14;;;;;;;6.35;2.30;;;;;;;15.59;100.00;100879.59;5271782;28;20044;-71
2023/08/26 02:51:45;;;;;;;7.07;2.45;;;;;;;15.59;100.00;100871.69;5267768;28;20028;-70
2023/08/26 02:54:17;;;;;;;6.00;2.50;;;;;;;15.62;100.00;100883.75;5276368;28;20123;-70
2023/08/26 02:56:48;;;;;;;5.57;2.38;;;;;;;15.50;100.00;100876.13;5276758;28;20032;-71
2023/08/26 02:59:19;;;;;;;8.25;2.30;;;;;;;15.50;100.00;100880.59;5276977;28;20020;-71
2023/08/26 03:02:11;;;;;;;4.57;2.17;;;;;;;15.84;100.00;100877.88;5275871;28;20081;-71
2023/08/26 03:04:43;;;;;;;8.02;2.25;;;;;;;15.48;100.00;100879.91;5272982;28;20779;-71
2023/08/26 03:07:14;;;;;;;4.05;2.20;;;;;;;15.49;100.00;100878.91;5274967;28;20314;-71
2023/08/26 03:09:45;;;;;;;6.05;2.60;;;;;;;15.48;100.00;100877.25;5269754;28;20210;-71
2023/08/26 03:12:16;;;;;;;7.00;2.35;;;;;;;15.40;100.00;100879.88;5269228;28;20032;-71
2023/08/26 03:14:51;;;;;;;6.68;2.70;;;;;;;15.35;100.00;100872.47;5276025;28;20130;-71
2023/08/26 03:17:22;;;;;;;4.22;2.00;;;;;;;15.26;100.00;100887.41;5275422;28;20036;-71
2023/08/26 03:19:54;;;;;;;6.07;2.17;;;;;;;15.23;100.00;100879.84;5275488;28;20477;-71
2023/08/26 03:22:25;;;;;;;6.80;2.15;;;;;;;15.25;100.00;100880.50;5271561;28;20139;-71
2023/08/26 03:24:56;;;;;;;7.88;2.33;;;;;;;15.25;100.00;100880.50;5270063;28;20039;-70
2023/08/26 03:27:27;;;;;;;4.93;2.17;;;;;;;15.21;100.00;100880.97;5277128;28;20109;-70
2023/08/26 03:29:59;;;;;;;4.80;2.72;;;;;;;15.19;100.00;100881.16;5269328;28;20031;-71
2023/08/26 03:32:30;;;;;;;7.70;2.92;;;;;;;15.19;100.00;100883.78;5275097;28;20093;-71
2023/08/26 03:35:02;;;;;;;5.20;2.65;;;;;;;15.19;100.00;100886.44;5267093;28;20028;-71
2023/08/26 03:37:34;;;;;;;8.15;2.67;;;;;;;15.12;100.00;100882.78;5269472;28;20031;-70
2023/08/26 03:40:08;;;;;;;5.30;2.47;;;;;;;15.11;100.00;100883.72;5270999;28;20901;-71
2023/08/26 03:42:40;;;;;;;6.85;2.60;;;;;;;15.11;100.00;100883.72;5274320;28;20054;-71
2023/08/26 03:45:11;;;;;;;5.63;2.38;;;;;;;15.13;100.00;100887.06;5268486;28;20040;-71
2023/08/26 03:47:43;;;;;;;4.65;2.22;;;;;;;15.09;100.00;100896.28;5274975;28;20035;-71
2023/08/26 03:50:14;;;;;;;4.57;2.22;;;;;;;15.15;100.00;100894.78;5277252;28;20123;-70
2023/08/26 03:52:45;;;;;;;5.30;2.30;;;;;;;15.13;100.00;100897.59;5277654;28;20081;-70
2023/08/26 03:55:17;;;;;;;5.35;2.15;;;;;;;15.04;100.00;100888.84;5274486;28;20032;-70
2023/08/26 03:57:48;;;;;;;4.80;2.38;;;;;;;14.96;100.00;100880.84;5270153;28;20056;-70
2023/08/26 04:00:19;;;;;;;7.18;2.50;;;;;;;15.02;100.00;100897.88;5268091;28;20414;-71
2023/08/26 04:02:50;;;;;;;6.85;2.75;;;;;;;15.01;100.00;100899.69;5273605;28;20478;-70
2023/08/26 04:05:22;;;;;;;7.20;2.45;;;;;;;14.98;100.00;100900.00;5274952;28;20098;-71
2023/08/26 04:07:53;;;;;;;5.93;2.60;;;;;;;14.98;100.00;100893.91;5273391;28;20409;-70
2023/08/26 04:10:25;;;;;;;6.15;2.72;;;;;;;14.96;100.00;100895.88;5284440;28;20036;-70
2023/08/26 04:13:00;;;;;;;5.93;2.67;;;;;;;15.05;100.00;100905.50;5277555;28;20032;-70
2023/08/26 04:15:31;;;;;;;5.13;2.50;;;;;;;14.94;100.00;100903.94;5274881;28;20032;-70
2023/08/26 04:18:03;;;;;;;6.13;2.78;;;;;;;14.95;100.00;100904.78;5277352;28;20074;-70
2023/08/26 04:20:35;;;;;;;3.60;2.08;;;;;;;14.89;100.00;100914.16;5272544;28;20032;-70
2023/08/26 04:23:06;;;;;;;5.38;2.70;;;;;;;14.85;100.00;100912.81;5275348;28;20063;-71
2023/08/26 04:25:38;;;;;;;7.18;3.05;;;;;;;14.87;100.00;100916.09;5277967;28;20070;-71
2023/08/26 04:28:11;;;;;;;7.57;2.97;;;;;;;14.88;100.00;100924.84;5275159;28;20028;-70
2023/08/26 04:30:44;;;;;;;7.00;2.58;;;;;;;14.84;100.00;100924.31;5276008;28;20455;-70
2023/08/26 04:33:16;;;;;;;;;;;;;;;15.54;100.00;100927.63;5276062;28;20119;-71
2023/08/26 04:35:47;;;;;;;4.43;2.50;;;;;;;14.82;100.00;100929.78;5278758;28;19916;-71
2023/08/26 04:38:18;;;;;;;5.90;2.50;;;;;;;14.76;100.00;100930.38;5273741;28;20381;-71
2023/08/26 04:40:49;;;;;;;6.90;2.92;;;;;;;14.73;100.00;100933.31;5271623;28;20035;-70
2023/08/26 04:43:21;;;;;;;5.72;2.10;;;;;;;14.67;100.00;100938.41;5275566;28;20043;-70
2023/08/26 04:45:52;;;;;;;4.75;2.25;;;;;;;14.65;100.00;100945.63;5275811;28;20059;-70
2023/08/26 04:48:24;;;;;;;6.43;2.33;;;;;;;14.59;100.00;100929.44;5275920;28;20037;-71
2023/08/26 04:50:55;;;;;;;5.38;2.45;;;;;;;14.63;100.00;100951.06;5274716;28;20062;-70
2023/08/26 04:53:27;;;;;;;5.40;2.28;;;;;;;14.63;100.00;100944.97;5278625;28;20392;-71
2023/08/26 04:55:58;;;;;;;7.07;2.20;;;;;;;14.60;100.00;100941.66;5276937;28;20024;-71
2023/08/26 04:58:30;;;;;;;5.13;2.92;;;;;;;14.60;100.00;100946.09;5277924;28;20028;-71
2023/08/26 05:01:02;;;;;;;5.82;3.00;;;;;;;14.62;100.00;100953.84;5281693;28;20450;-71
2023/08/26 05:03:34;;;;;;;4.63;2.17;;;;;;;14.58;100.00;100958.59;5281340;28;20122;-71
2023/08/26 05:06:05;;;;;;;4.38;2.40;;;;;;;14.60;100.00;100952.19;5272976;28;21173;-71
2023/08/26 05:08:36;;;;;;;5.47;1.98;;;;;;;14.60;100.00;100961.91;5278655;28;20462;-71
2023/08/26 05:11:07;;;;;;;4.85;2.28;;;;;;;14.62;100.00;100975.75;5276214;28;20473;-71
2023/08/26 05:13:41;;;;;;;5.63;2.80;;;;;;;14.66;100.00;100971.88;5274293;28;20494;-70
2023/08/26 05:16:13;;;;;;;5.05;2.33;;;;;;;14.57;100.00;100954.31;5282281;28;20494;-71
2023/08/26 05:18:44;;;;;;;5.22;2.60;;;;;;;14.62;100.00;100959.94;5269903;28;20021;-70
2023/08/26 05:21:16;;;;;;;7.45;2.42;;;;;;;14.63;100.00;100964.25;5279749;28;20059;-70
2023/08/26 05:23:47;;;;;;;4.95;2.00;;;;;;;14.64;100.00;100965.06;5275019;28;20070;-70
2023/08/26 05:26:18;;;;;;;8.15;2.42;;;;;;;14.68;100.00;100958.50;5272457;28;20024;-70
2023/08/26 05:28:49;;;;;;;8.38;2.83;;;;;;;14.67;100.00;100959.50;5275227;28;20020;-71
2023/08/26 05:31:21;;;;;;;4.30;2.38;;;;;;;14.63;100.00;100966.88;5272255;28;20398;-70
2023/08/26 05:33:52;;;;;;;4.95;2.65;;;;;;;14.70;100.00;100970.56;5278625;28;20832;-71
2023/08/26 05:36:23;;;;;;;4.78;2.50;;;;;;;14.73;100.00;100967.59;5278874;28;20457;-71
2023/08/26 05:38:54;;;;;;;4.93;2.15;;;;;;;14.73;100.00;100967.59;5265420;28;20025;-71
2023/08/26 05:41:26;;;;;;;5.97;2.67;;;;;;;14.74;100.00;100966.66;5279206;28;20025;-71
2023/08/26 05:43:57;;;;;;;4.55;2.78;;;;;;;14.78;100.00;100961.88;5271352;28;20024;-71
2023/08/26 05:46:28;;;;;;;5.25;2.50;;;;;;;14.75;100.00;100959.56;5280780;28;20031;-71
2023/08/26 05:49:00;;;;;;;7.32;2.55;;;;;;;14.80;100.00;100955.47;5269384;28;20748;-71
2023/08/26 05:51:31;;;;;;;6.10;2.58;;;;;;;14.90;100.00;100950.09;5275927;28;20053;-70
2023/08/26 05:54:03;;;;;;;6.97;2.80;;;;;;;14.90;100.00;100946.63;5272370;28;20035;-71
2023/08/26 05:56:34;;;;;;;7.45;2.95;;;;;;;14.91;100.00;100951.75;5274018;28;20036;-70
2023/08/26 05:59:05;;;;;;;7.20;3.08;;;;;;;14.95;100.00;100957.53;5274929;28;20024;-70
2023/08/26 06:01:37;;;;;;;8.65;3.80;;;;;;;14.98;100.00;100951.94;5272069;28;20028;-71
2023/08/26 06:04:08;;;;;;;9.10;3.67;;;;;;;14.99;100.00;100954.41;5268944;28;20288;-71
2023/08/26 06:06:40;;;;;;;7.40;3.60;;;;;;;15.05;100.00;100953.00;5268392;28;20032;-71
2023/08/26 06:09:11;;;;;;;7.93;3.58;;;;;;;15.08;100.00;100960.59;5273686;28;20069;-70
2023/08/26 06:11:42;;;;;;;6.43;3.22;;;;;;;15.11;100.00;100949.69;5268924;28;20064;-70
2023/08/26 06:14:13;;;;;;;6.72;3.55;;;;;;;15.16;100.00;100947.44;5276812;28;20225;-71
2023/08/26 06:16:47;;;;;;;7.63;3.65;;;;;;;15.21;100.00;100944.31;5274747;28;20028;-71
2023/08/26 06:19:18;;;;;;;8.68;3.17;;;;;;;15.25;100.00;100938.56;5274712;28;20108;-71
2023/08/26 06:21:49;;;;;;;7.90;3.72;;;;;;;15.30;100.00;100936.28;5270933;28;20024;-71
2023/08/26 06:24:21;;;;;;;8.43;4.25;;;;;;;15.33;100.00;100943.88;5269556;28;20032;-71
2023/08/26 06:26:52;;;;;;;6.25;3.95;;;;;;;15.39;100.00;100933.69;5272268;28;20032;-71
2023/08/26 06:29:27;;;;;;;9.40;3.47;;;;;;;15.44;100.00;100939.31;5270376;28;20043;-70
2023/08/26 06:31:58;;;;;;;8.18;3.72;;;;;;;15.49;100.00;100943.13;5268320;28;20040;-71
2023/08/26 06:34:29;;;;;;;10.27;4.22;;;;;;;15.61;100.00;100942.81;5276973;28;20031;-70
2023/08/26 06:37:00;;;;;;;7.75;3.13;;;;;;;15.71;100.00;100941.72;5271088;28;20122;-71
2023/08/26 06:39:32;;;;;;;7.80;3.85;;;;;;;15.77;100.00;100945.53;5258640;28;20028;-71
2023/08/26 06:42:03;;;;;;;6.15;3.60;;;;;;;15.84;100.00;100948.38;5274032;28;20049;-71
2023/08/26 06:44:34;;;;;;;7.57;3.25;;;;;;;15.93;100.00;100947.41;5275824;28;20032;-71
2023/08/26 06:47:08;;;;;;;8.48;4.18;;;;;;;16.07;100.00;100938.84;5274429;28;20027;-71
2023/08/26 06:49:39;;;;;;;8.13;3.83;;;;;;;16.09;100.00;100936.00;5270145;28;20044;-71
2023/08/26 06:52:11;;;;;;;7.03;3.53;;;;;;;16.17;100.00;100928.09;5277576;28;20461;-71
2023/08/26 06:54:42;;;;;;;7.10;3.65;;;;;;;16.25;100.00;100931.59;5272989;28;20028;-71
2023/08/26 06:57:13;;;;;;;8.05;3.28;;;;;;;16.36;100.00;100940.97;5272192;28;20037;-70
2023/08/26 06:59:45;;;;;;;5.15;2.80;;;;;;;16.43;100.00;100944.63;5267865;28;20024;-71
2023/08/26 07:02:16;;;;;;;5.65;3.20;;;;;;;16.51;100.00;100939.31;5267948;28;20021;-71
2023/08/26 07:04:48;;;;;;;6.57;3.03;;;;;;;16.62;100.00;100943.44;5273863;28;20181;-71
2023/08/26 07:07:19;;;;;;;7.78;2.83;;;;;;;16.75;100.00;100943.81;5273779;28;20409;-71
2023/08/26 07:09:50;;;;;;;6.15;2.80;;;;;;;16.85;100.00;100948.06;5277523;28;20370;-71
2023/08/26 07:12:22;;;;;;;6.72;2.72;;;;;;;16.88;100.00;100932.69;5269945;28;20032;-71
2023/08/26 07:14:53;;;;;;;5.70;2.53;;;;;;;16.98;100.00;100946.56;5268692;28;20060;-71
2023/08/26 07:17:24;;;;;;;6.13;2.35;;;;;;;17.07;100.00;100939.41;5271891;28;20401;-71
2023/08/26 07:19:56;;;;;;;7.53;2.75;;;;;;;17.17;100.00;100941.88;5275406;28;20027;-71
2023/08/26 07:22:27;;;;;;;5.78;2.80;;;;;;;17.29;100.00;100945.81;5274670;28;20801;-71
2023/08/26 07:24:59;;;;;;;5.75;2.55;;;;;;;17.34;100.00;100947.94;5271645;28;20028;-71
2023/08/26 07:27:30;;;;;;;5.20;2.22;;;;;;;17.43;100.00;100947.75;5273544;28;20108;-71
2023/08/26 07:30:01;;;;;;;6.20;2.85;;;;;;;17.44;100.00;100952.03;5274370;28;20031;-71
2023/08/26 07:32:32;;;;;;;5.05;2.47;;;;;;;17.58;100.00;100952.28;5280155;28;20036;-71
2023/08/26 07:35:05;;;;;;;5.60;2.58;;;;;;;17.56;100.00;100949.00;5270200;28;20028;-71
2023/08/26 07:37:37;;;;;;;8.95;2.55;;;;;;;17.61;100.00;100944.81;5268016;28;20028;-71
2023/08/26 07:40:12;;;;;;;5.70;2.28;;;;;;;17.91;100.00;100952.97;5277446;28;20501;-71
2023/08/26 07:42:44;;;;;;;5.88;2.33;;;;;;;17.86;100.00;100952.69;5271196;28;20035;-71
2023/08/26 07:45:16;;;;;;;3.65;1.95;;;;;;;17.91;100.00;100953.78;5277234;28;20549;-71
2023/08/26 07:47:47;;;;;;;4.57;2.05;;;;;;;18.07;100.00;100950.22;5274445;28;20032;-71
2023/08/26 07:50:19;;;;;;;7.65;2.17;;;;;;;18.17;100.00;100952.63;5280355;28;20384;-71
2023/08/26 07:52:50;;;;;;;6.47;2.05;;;;;;;18.24;100.00;100961.53;5273019;28;20033;-71
2023/08/26 07:55:21;;;;;;;3.78;1.80;;;;;;;18.47;100.00;100954.38;5271568;28;20203;-70
2023/08/26 07:57:53;;;;;;;5.45;2.00;;;;;;;18.66;100.00;100962.84;5281980;28;20489;-70
2023/08/26 08:00:24;;;;;;;3.30;1.63;;;;;;;18.70;100.00;100957.00;5281030;28;20039;-70
2023/08/26 08:02:56;;;;;;;5.88;1.75;;;;;;;18.76;100.00;100965.28;5276645;28;20038;-71
2023/08/26 08:05:27;;;;;;;4.90;1.70;;;;;;;18.98;100.00;100956.41;5275376;28;20505;-70
2023/08/26 08:07:58;;;;;;;5.38;1.95;;;;;;;19.04;100.00;100950.38;5279804;28;20500;-71
2023/08/26 08:10:29;;;;;;;4.77;1.60;;;;;;;19.13;100.00;100949.28;5265243;28;20524;-71
2023/08/26 08:13:01;;;;;;;9.40;2.17;;;;;;;19.15;100.00;100957.88;5268790;28;20433;-70
2023/08/26 08:15:32;;;;;;;4.28;1.52;;;;;;;19.19;100.00;100945.88;5276400;28;20028;-70
2023/08/26 08:18:04;;;;;;;6.00;1.75;;;;;;;19.20;100.00;100944.84;5285517;28;20246;-70
2023/08/26 08:20:35;;;;;;;4.83;1.70;;;;;;;19.33;100.00;100957.50;5250899;28;20394;-70
2023/08/26 08:23:06;;;;;;;3.83;1.80;;;;;;;19.47;100.00;100937.22;5279790;28;20078;-70
2023/08/26 08:25:37;;;;;;;5.65;1.38;;;;;;;19.52;100.00;100950.78;5278295;28;20425;-70
2023/08/26 08:28:09;;;;;;;4.00;1.50;;;;;;;19.58;100.00;100941.22;5284321;28;20035;-71
2023/08/26 08:30:40;;;;;;;4.67;1.70;;;;;;;19.72;100.00;100943.06;5273960;28;20110;-70
2023/08/26 08:33:11;;;;;;;6.00;1.88;;;;;;;19.98;100.00;100941.72;5276329;28;20105;-70
2023/08/26 08:35:42;;;;;;;3.53;1.33;;;;;;;19.95;100.00;100939.44;5277269;28;20063;-71
2023/08/26 08:38:14;;;;;;;3.27;1.27;;;;;;;20.03;100.00;100940.13;5275980;28;20028;-70
2023/08/26 08:40:45;;;;;;;4.53;1.40;;;;;;;20.26;100.00;100947.91;5275155;28;20118;-70
2023/08/26 08:43:20;;;;;;;3.77;1.67;;;;;;;20.29;100.00;100946.69;5272547;28;20165;-70
2023/08/26 08:45:52;;;;;;;3.28;1.30;;;;;;;20.34;100.00;100947.78;5277603;28;20032;-71
2023/08/26 08:48:23;;;;;;;6.20;1.50;;;;;;;20.39;100.00;100947.22;5275563;28;20112;-70
2023/08/26 08:50:57;;;;;;;1.97;1.03;;;;;;;20.55;100.00;100956.78;5268412;28;20020;-70
2023/08/26 08:53:32;;;;;;;4.40;1.27;;;;;;;20.54;100.00;100961.28;5278469;28;20040;-70
2023/08/26 08:56:06;;;;;;;2.40;1.00;;;;;;;20.52;100.00;100957.97;5278475;28;20255;-71
2023/08/26 08:58:38;;;;;;;4.78;1.38;;;;;;;20.45;100.00;100966.88;5268771;28;20498;-70
2023/08/26 09:01:09;;;;;;;2.67;1.15;;;;;;;20.72;100.00;100959.97;5266930;28;20102;-70
2023/08/26 09:03:41;;;;;;;3.20;1.07;;;;;;;20.86;100.00;100967.84;5274489;28;20039;-70
2023/08/26 09:06:13;;;;;;;5.67;1.50;;;;;;;20.96;100.00;100972.84;5274062;28;20028;-70
2023/08/26 09:08:44;;;;;;;4.37;1.60;;;;;;;20.93;100.00;100970.56;5278400;28;20567;-70
2023/08/26 09:11:15;;;;;;;2.93;1.30;;;;;;;20.88;100.00;100978.34;5265351;28;20068;-71
2023/08/26 09:13:47;;;;;;;3.47;1.60;;;;;;;20.81;100.00;100980.13;5255749;28;20029;-71
2023/08/26 09:16:35;;;;;;;5.43;1.73;;;;;;;21.27;100.00;100979.59;5275380;28;20048;-71
2023/08/26 09:19:07;;;;;;;3.50;1.23;;;;;;;21.12;100.00;100985.84;5276021;28;20441;-71
2023/08/26 09:21:43;;;;;;;4.25;1.55;;;;;;;21.11;100.00;100973.56;5271353;28;20055;-71
2023/08/26 09:24:16;;;;;;;3.28;1.20;;;;;;;21.24;100.00;100978.13;5269363;28;20330;-71
2023/08/26 09:27:00;;;;;;;2.95;1.17;;;;;;;21.53;100.00;100973.59;5277429;28;20409;-71
2023/08/26 09:29:32;;;;;;;4.13;1.20;;;;;;;21.32;100.00;100977.13;5269956;28;20104;-71
2023/08/26 09:32:03;;;;;;;3.40;1.10;;;;;;;21.36;100.00;100978.41;5278055;28;20184;-71
2023/08/26 09:34:35;;;;;;;3.43;1.30;;;;;;;21.19;100.00;100972.56;5274469;28;20444;-71
2023/08/26 09:37:09;;;;;;;4.03;1.23;;;;;;;21.26;100.00;100983.28;5277099;28;20024;-71
2023/08/26 09:39:46;;;;;;;4.97;1.27;;;;;;;21.44;100.00;100983.59;5282689;28;20796;-71
2023/08/26 09:42:18;;;;;;;3.00;1.20;;;;;;;21.53;100.00;100984.25;5274612;28;20501;-70
2023/08/26 09:44:49;;;;;;;3.17;1.33;;;;;;;21.74;100.00;100977.94;5275114;28;20020;-70
2023/08/26 09:47:21;;;;;;;2.33;1.03;;;;;;;21.88;100.00;100974.31;5266292;28;20035;-70
2023/08/26 09:49:53;;;;;;;2.83;1.07;;;;;;;21.78;100.00;100992.53;5274341;28;20084;-73
2023/08/26 09:52:24;;;;;;;3.33;1.20;;;;;;;21.76;100.00;100984.75;5275285;28;20787;-72
2023/08/26 09:54:56;;;;;;;3.07;0.93;;;;;;;21.73;100.00;100986.97;5270574;28;20028;-71
2023/08/26 09:57:27;;;;;;;4.77;1.10;;;;;;;21.61;100.00;100986.75;5269880;28;20111;-71
2023/08/26 09:59:58;;;;;;;4.03;1.20;;;;;;;21.72;100.00;100998.69;5267457;28;20371;-72
2023/08/26 10:02:33;;;;;;;5.17;1.20;;;;;;;21.76;100.00;100982.06;5279739;28;20106;-72
2023/08/26 10:05:09;;;;;;;2.90;1.13;;;;;;;21.93;100.00;100985.19;5272551;28;20036;-71
2023/08/26 10:07:43;;;;;;;3.45;1.10;;;;;;;22.08;100.00;100980.50;5273764;28;20127;-71
2023/08/26 10:10:29;;;;;;;4.03;1.67;;;;;;;22.44;100.00;100989.22;5273521;28;20036;-71
2023/08/26 10:13:04;;;;;;;3.65;1.13;;;;;;;22.41;100.00;100981.63;5270468;28;20028;-71
2023/08/26 10:15:35;;;;;;;3.20;1.27;;;;;;;22.41;100.00;100984.28;5268484;28;20028;-71
2023/08/26 10:18:18;;;;;;;3.03;1.10;;;;;;;22.79;100.00;100985.28;5272328;28;20169;-72
2023/08/26 10:20:51;;;;;;;3.42;1.20;;;;;;;22.77;100.00;100983.88;5276190;28;20594;-72
2023/08/26 10:23:24;;;;;;;;;;;;;;;23.73;100.00;100989.41;5254975;28;20036;-71
2023/08/26 10:25:56;;;;;;;4.60;1.27;;;;;;;23.13;100.00;100994.13;5273747;28;19991;-71
2023/08/26 10:28:29;;;;;;;3.07;1.13;;;;;;;22.92;100.00;100995.19;5270755;28;20131;-71
2023/08/26 10:31:00;;;;;;;;;;;;;;;23.65;100.00;100992.28;5269928;28;20024;-72
2023/08/26 10:34:01;;;;;;;2.97;1.00;;;;;;;23.13;100.00;100994.13;5277765;28;20199;-72
2023/08/26 10:36:37;;;;;;;5.50;0.98;;;;;;;22.81;100.00;100990.44;5275485;28;20032;-72
2023/08/26 10:39:18;;;;;;;4.63;1.23;;;;;;;22.97;100.00;100987.38;5276514;28;20493;-72
2023/08/26 10:42:22;;;;;;;3.92;1.30;;;;;;;23.40;100.00;100986.84;5274973;28;20371;-72
2023/08/26 10:44:58;;;;;;;2.78;1.10;;;;;;;22.96;100.00;100983.06;5223821;28;20135;-72
2023/08/26 10:47:36;;;;;;;3.13;0.82;;;;;;;23.17;100.00;100973.13;5270421;28;20032;-71
2023/08/26 10:50:15;;;;;;;2.92;1.00;;;;;;;23.50;100.00;100979.19;5272039;28;20484;-72
2023/08/26 10:52:59;;;;;;;2.78;1.00;;;;;;;23.44;100.00;100980.03;5272564;28;20036;-72
2023/08/26 10:55:33;;;;;;;2.45;1.02;;;;;;;23.56;100.00;100977.50;5272116;28;20040;-72
2023/08/26 10:58:16;;;;;;;2.55;1.00;;;;;;;23.79;100.00;100977.03;5272324;28;20028;-72
2023/08/26 11:00:50;;;;;;;2.50;0.90;;;;;;;23.61;100.00;100974.22;5275307;28;20047;-72
2023/08/26 11:03:22;;;;;;;1.80;0.70;;;;;;;23.55;100.00;100975.88;5270821;28;20025;-72
2023/08/26 11:06:04;;;;;;;;;;;;;;;24.41;100.00;100969.25;5282636;28;20479;-71
2023/08/26 11:08:38;;;;;;;2.13;0.80;;;;;;;23.71;100.00;100967.38;5281374;28;20003;-72
2023/08/26 11:11:11;;;;;;;2.80;1.00;;;;;;;23.38;100.00;100975.53;5272832;28;20127;-72
2023/08/26 11:13:45;;;;;;;2.10;0.85;;;;;;;23.31;100.00;100966.72;5271855;28;20042;-72
2023/08/26 11:16:17;;;;;;;2.83;1.10;;;;;;;23.51;100.00;100963.97;5271198;28;20490;-72
2023/08/26 11:18:52;;;;;;;3.33;1.07;;;;;;;23.70;100.00;100962.25;5271969;28;20085;-71
2023/08/26 11:21:23;;;;;;;2.47;1.02;;;;;;;23.68;100.00;100959.00;5272460;28;20043;-72
2023/08/26 11:23:58;;;;;;;2.70;0.80;;;;;;;23.82;100.00;100963.22;5270589;28;20870;-72
2023/08/26 11:26:29;;;;;;;2.03;0.80;;;;;;;23.82;100.00;100960.53;5274137;28;20048;-71
2023/08/26 11:29:00;;;;;;;3.30;1.53;;;;;;;23.87;100.00;100958.06;5278629;28;20434;-71
2023/08/26 11:31:32;;;;;;;3.27;1.13;;;;;;;23.90;100.00;100957.59;5271700;28;20360;-71
2023/08/26 11:34:03;;;;;;;1.87;0.90;;;;;;;24.02;100.00;100961.25;5273735;28;20029;-72
2023/08/26 11:36:35;;;;;;;5.63;1.77;;;;;;;24.15;100.00;100948.81;5276707;28;20406;-72
2023/08/26 11:39:16;;;;;;;1.63;0.70;;;;;;;24.35;100.00;100946.78;5275226;28;20024;-72
2023/08/26 11:41:48;;;;;;;1.95;0.85;;;;;;;23.92;100.00;100946.69;5274994;28;20119;-72